This is the latest recevied weather packets stored in our database for station/object SA6GOM-3. If no packets are shown the sender has not sent any weather packets the latest 10 day(s).
| Time | Temp. | Humidity | Pressure | Rain* | Wind** | Luminosity | Snow |
|---|---|---|---|---|---|---|---|
| 1777426547 | 0° C | 71% | 1030.7 hPa | - | - | - | - |
| 1777422947 | 0.56° C | 69% | 1030.6 hPa | - | - | - | - |
| 1777419347 | 1.67° C | 69% | 1030.9 hPa | - | - | - | - |
| 1777415747 | 2.22° C | 67% | 1030.5 hPa | - | - | - | - |
| 1777412147 | 3.89° C | 64% | 1030.2 hPa | - | - | - | - |
| 1777408547 | 5.56° C | 59% | 1030 hPa | - | - | - | - |
| 1777404947 | 6.11° C | 55% | 1029.8 hPa | - | - | - | - |
| 1777401347 | 8.33° C | 51% | 1029.5 hPa | - | - | - | - |
| 1777397747 | 10° C | 44% | 1029 hPa | - | - | - | - |
| 1777394147 | 12.22° C | 39% | 1029 hPa | - | - | - | - |
| 1777390546 | 12.78° C | 39% | 1028.9 hPa | - | - | - | - |
| 1777386946 | 15° C | 33% | 1029.1 hPa | - | - | - | - |
| 1777383346 | 13.89° C | 32% | 1029.5 hPa | - | - | - | - |
| 1777379746 | 13.33° C | 32% | 1029.8 hPa | - | - | - | - |
| 1777376146 | 14.44° C | 29% | 1030.2 hPa | - | - | - | - |
| 1777372546 | 12.22° C | 33% | 1030.5 hPa | - | - | - | - |
| 1777368946 | 11.67° C | 33% | 1031.2 hPa | - | - | - | - |
| 1777365346 | 18.33° C | 24% | 1031.1 hPa | - | - | - | - |
| 1777361746 | 12.22° C | 34% | 1031 hPa | - | - | - | - |
| 1777358146 | 11.67° C | 36% | 1031.1 hPa | - | - | - | - |
| 1777354546 | 17.22° C | 32% | 1030.8 hPa | - | - | - | - |
| 1777350945 | 7.78° C | 52% | 1030.4 hPa | - | - | - | - |
| 1777347345 | -2.22° C | 76% | 1030.3 hPa | - | - | - | - |
| 1777343745 | -1.67° C | 75% | 1030.1 hPa | - | - | - | - |
| 1777340145 | -1.11° C | 76% | 1029.9 hPa | - | - | - | - |
* Rain since midnight (hover to see other rain measurements)
** Current wind speed in m/s (hover to see current wind gust speed)